Time,TemperatureF,DewpointF,PressureIn,WindDirection,WindDirectionDegrees,WindSpeedMPH,WindSpeedGustMPH,Humidity,HourlyPrecipIn,Conditions,Clouds,dailyrainin,SoftwareType,DateUTC
2013-09-19 07:57:00,74.7,70.9,29.76,North,0,1.6,1.6,88,0.00,,---,0.00,VWS V14.01,2013-09-19 11:57:00,
2013-09-19 07:58:00,74.7,70.9,29.76,North,0,1.3,1.6,88,0.00,,---,0.00,VWS V14.01,2013-09-19 11:58:00,
2013-09-19 08:03:00,74.8,71.1,29.76,NE,45,1.6,2.7,88,0.00,,---,0.00,VWS V14.01,2013-09-19 12:03:00,
2013-09-19 08:08:00,75.4,71.2,29.76,NNW,338,2.7,2.7,87,0.00,,---,0.00,VWS V14.01,2013-09-19 12:08:00,
2013-09-19 08:13:00,75.6,71.1,29.76,NE,45,2.5,2.7,86,0.00,,---,0.00,VWS V14.01,2013-09-19 12:13:00,
2013-09-19 08:18:00,75.9,70.7,29.76,ENE,68,1.3,1.6,84,0.00,,---,0.00,VWS V14.01,2013-09-19 12:18:00,
2013-09-19 08:23:00,76.6,70.7,29.76,ENE,68,1.6,3.1,82,0.00,,---,0.00,VWS V14.01,2013-09-19 12:23:00,
2013-09-19 08:28:00,76.6,70.7,29.76,NE,45,2.9,2.9,82,0.00,,---,0.00,VWS V14.01,2013-09-19 12:28:00,
2013-09-19 08:33:00,77.2,69.8,29.76,NE,45,3.4,3.8,78,0.00,,---,0.00,VWS V14.01,2013-09-19 12:33:00,
2013-09-19 08:38:00,77.4,69.6,29.76,ENE,68,2.7,3.4,77,0.00,,---,0.00,VWS V14.01,2013-09-19 12:38:00,
2013-09-19 08:43:00,77.7,69.6,29.79,NE,45,4.0,5.6,76,0.00,,---,0.00,VWS V14.01,2013-09-19 12:43:00,
2013-09-19 08:48:00,78.3,69.7,29.79,NE,45,3.6,4.3,75,0.00,,---,0.00,VWS V14.01,2013-09-19 12:48:00,
2013-09-19 08:53:00,79.0,70.0,29.79,NW,315,0.0,1.6,74,0.00,,---,0.00,VWS V14.01,2013-09-19 12:53:00,
2013-09-19 08:58:00,79.5,70.5,29.79,North,0,3.6,3.6,74,0.00,,---,0.00,VWS V14.01,2013-09-19 12:58:00,
2013-09-19 09:03:00,79.7,69.9,29.79,WNW,292,2.9,2.9,72,0.00,,---,0.00,VWS V14.01,2013-09-19 13:03:00,
2013-09-19 09:08:00,79.9,69.2,29.79,NE,45,2.7,3.1,70,0.00,,---,0.00,VWS V14.01,2013-09-19 13:08:00,
2013-09-19 09:13:00,80.4,69.3,29.79,NW,315,4.0,4.0,69,0.00,,---,0.00,VWS V14.01,2013-09-19 13:13:00,
2013-09-19 09:18:00,81.0,69.4,29.79,ENE,68,2.7,2.7,68,0.00,,---,0.00,VWS V14.01,2013-09-19 13:18:00,
2013-09-19 09:23:00,81.9,69.4,29.79,ESE,112,2.0,2.0,66,0.00,,---,0.00,VWS V14.01,2013-09-19 13:23:00,
2013-09-19 09:28:00,82.2,69.7,29.79,North,0,4.0,6.0,66,0.00,,---,0.00,VWS V14.01,2013-09-19 13:28:00,
2013-09-19 09:33:00,82.6,69.6,29.79,ENE,68,3.1,3.1,65,0.00,,---,0.00,VWS V14.01,2013-09-19 13:33:00,
2013-09-19 09:38:00,85.1,71.1,29.79,ESE,112,2.0,2.5,63,0.00,,---,0.00,VWS V14.01,2013-09-19 13:38:00,
2013-09-19 09:43:00,85.3,69.3,29.79,NE,45,5.8,7.4,59,0.00,,---,0.00,VWS V14.01,2013-09-19 13:43:00,
2013-09-19 09:48:00,86.9,69.8,29.79,NE,45,6.3,6.3,57,0.00,,---,0.00,VWS V14.01,2013-09-19 13:48:00,
2013-09-19 09:53:00,88.2,70.0,29.79,East,90,2.5,6.0,55,0.00,,---,0.00,VWS V14.01,2013-09-19 13:53:00,
2013-09-19 09:58:00,89.1,69.7,29.79,ENE,68,1.6,2.0,53,0.00,,---,0.00,VWS V14.01,2013-09-19 13:58:00,
2013-09-19 10:03:00,89.2,68.2,29.79,ENE,68,2.0,3.6,50,0.00,,---,0.00,VWS V14.01,2013-09-19 14:03:00,
2013-09-19 10:08:00,88.9,67.3,29.79,ENE,68,6.5,6.5,49,0.00,,---,0.00,VWS V14.01,2013-09-19 14:08:00,
2013-09-19 10:13:00,90.0,66.4,29.79,NNE,22,4.5,4.5,46,0.00,,---,0.00,VWS V14.01,2013-09-19 14:13:00,
2013-09-19 10:18:00,89.2,67.0,29.79,East,90,3.6,3.6,48,0.00,,---,0.00,VWS V14.01,2013-09-19 14:18:00,
2013-09-19 10:23:00,90.1,67.2,29.79,East,90,3.1,4.7,47,0.00,,---,0.00,VWS V14.01,2013-09-19 14:23:00,
2013-09-19 10:28:00,90.9,67.2,29.79,East,90,2.5,4.3,46,0.00,,---,0.00,VWS V14.01,2013-09-19 14:28:00,
2013-09-19 10:33:00,89.6,65.5,29.79,NE,45,2.7,3.8,45,0.00,,---,0.00,VWS V14.01,2013-09-19 14:33:00,
2013-09-19 10:39:00,88.7,65.3,29.79,NE,45,3.6,3.6,46,0.00,,---,0.00,VWS V14.01,2013-09-19 14:39:00,
2013-09-19 10:44:00,88.5,65.1,29.79,North,0,3.4,3.4,46,0.00,,---,0.00,VWS V14.01,2013-09-19 14:44:00,
2013-09-19 10:49:00,88.7,66.5,29.79,NE,45,3.1,5.6,48,0.00,,---,0.00,VWS V14.01,2013-09-19 14:49:00,
2013-09-19 10:54:00,88.9,66.1,29.79,NNW,338,2.7,2.7,47,0.00,,---,0.00,VWS V14.01,2013-09-19 14:54:00,
2013-09-19 10:59:00,89.8,66.3,29.79,NNE,22,3.4,3.4,46,0.00,,---,0.00,VWS V14.01,2013-09-19 14:59:00,
2013-09-19 11:04:00,89.4,64.7,29.79,NNE,22,3.6,3.6,44,0.00,,---,0.00,VWS V14.01,2013-09-19 15:04:00,
2013-09-19 11:09:00,89.1,64.3,29.79,NNE,22,3.1,3.1,44,0.00,,---,0.00,VWS V14.01,2013-09-19 15:09:00,
2013-09-19 11:14:00,89.1,64.3,29.79,NNW,338,5.4,5.8,44,0.00,,---,0.00,VWS V14.01,2013-09-19 15:14:00,
2013-09-19 11:19:00,89.2,63.8,29.79,East,90,5.6,5.6,43,0.00,,---,0.00,VWS V14.01,2013-09-19 15:19:00,
2013-09-19 11:24:00,89.2,63.2,29.79,NE,45,4.7,4.7,42,0.00,,---,0.00,VWS V14.01,2013-09-19 15:24:00,
2013-09-19 11:29:00,91.6,63.9,29.79,East,90,3.4,5.4,40,0.00,,---,0.00,VWS V14.01,2013-09-19 15:29:00,
2013-09-19 11:34:00,91.9,64.2,29.79,NE,45,2.9,6.0,40,0.00,,---,0.00,VWS V14.01,2013-09-19 15:34:00,
2013-09-19 11:39:00,91.2,62.8,29.79,NE,45,3.8,5.8,39,0.00,,---,0.00,VWS V14.01,2013-09-19 15:39:00,
2013-09-19 11:44:00,91.2,62.8,29.82,North,0,2.5,2.5,39,0.00,,---,0.00,VWS V14.01,2013-09-19 15:44:00,
2013-09-19 11:49:00,91.0,62.7,29.82,NE,45,3.6,4.0,39,0.00,,---,0.00,VWS V14.01,2013-09-19 15:49:00,
2013-09-19 11:54:00,91.6,62.4,29.82,NNE,22,3.1,3.1,38,0.00,,---,0.00,VWS V14.01,2013-09-19 15:54:00,
2013-09-19 11:59:00,91.4,62.2,29.82,East,90,4.7,4.7,38,0.00,,---,0.00,VWS V14.01,2013-09-19 15:59:00,
2013-09-19 12:04:00,91.4,62.2,29.82,SE,135,3.1,3.8,38,0.00,,---,0.00,VWS V14.01,2013-09-19 16:04:00,
2013-09-19 12:09:00,91.8,62.6,29.82,ENE,68,6.3,6.3,38,0.00,,---,0.00,VWS V14.01,2013-09-19 16:09:00,
2013-09-19 12:14:00,92.1,62.9,29.82,NE,45,8.1,8.1,38,0.00,,---,0.00,VWS V14.01,2013-09-19 16:14:00,
2013-09-19 12:19:00,92.8,63.5,29.82,NNE,22,3.8,3.8,38,0.00,,---,0.00,VWS V14.01,2013-09-19 16:19:00,
2013-09-19 12:24:00,93.7,63.6,29.82,NNE,22,2.9,3.1,37,0.00,,---,0.00,VWS V14.01,2013-09-19 16:24:00,
2013-09-19 12:29:00,93.6,63.4,29.79,NNE,22,2.5,2.5,37,0.00,,---,0.00,VWS V14.01,2013-09-19 16:29:00,
2013-09-19 12:34:00,95.4,64.2,29.79,ENE,68,3.4,5.6,36,0.00,,---,0.00,VWS V14.01,2013-09-19 16:34:00,
2013-09-19 12:39:00,96.8,59.3,29.79,NE,45,2.7,4.5,29,0.00,,---,0.00,VWS V14.01,2013-09-19 16:39:00,
2013-09-19 12:44:00,95.0,58.7,29.79,North,0,7.8,7.8,30,0.00,,---,0.00,VWS V14.01,2013-09-19 16:44:00,
2013-09-19 12:49:00,93.7,58.6,29.79,North,0,6.5,6.5,31,0.00,,---,0.00,VWS V14.01,2013-09-19 16:49:00,
2013-09-19 12:54:00,93.6,58.4,29.79,East,90,6.3,6.3,31,0.00,,---,0.00,VWS V14.01,2013-09-19 16:54:00,
2013-09-19 12:59:00,94.8,61.3,29.79,NNE,22,1.6,3.8,33,0.00,,---,0.00,VWS V14.01,2013-09-19 16:59:00,
2013-09-19 13:05:00,94.5,60.1,29.79,North,0,2.5,3.6,32,0.00,,---,0.00,VWS V14.01,2013-09-19 17:05:00,
2013-09-19 13:10:00,94.5,59.2,29.79,NNW,338,4.3,5.6,31,0.00,,---,0.00,VWS V14.01,2013-09-19 17:10:00,
2013-09-19 13:15:00,95.2,61.6,29.79,ENE,68,3.6,4.3,33,0.00,,---,0.00,VWS V14.01,2013-09-19 17:15:00,
2013-09-19 13:20:00,95.4,61.7,29.79,NNE,22,3.1,4.7,33,0.00,,---,0.00,VWS V14.01,2013-09-19 17:20:00,
2013-09-19 13:25:00,95.4,60.0,29.79,ESE,112,4.3,4.3,31,0.00,,---,0.00,VWS V14.01,2013-09-19 17:25:00,
2013-09-19 13:30:00,95.7,61.2,29.79,East,90,8.1,8.1,32,0.00,,---,0.00,VWS V14.01,2013-09-19 17:30:00,
2013-09-19 13:35:00,96.1,60.6,29.79,East,90,5.6,6.3,31,0.00,,---,0.00,VWS V14.01,2013-09-19 17:35:00,
2013-09-19 13:40:00,96.6,60.1,29.76,SE,135,2.5,2.5,30,0.00,,---,0.00,VWS V14.01,2013-09-19 17:40:00,
2013-09-19 13:45:00,96.8,60.3,29.76,NE,45,2.7,3.6,30,0.00,,---,0.00,VWS V14.01,2013-09-19 17:45:00,
2013-09-19 13:50:00,96.8,60.3,29.76,NNE,22,6.3,7.2,30,0.00,,---,0.00,VWS V14.01,2013-09-19 17:50:00,
2013-09-19 13:55:00,95.9,58.6,29.76,ENE,68,3.6,3.6,29,0.00,,---,0.00,VWS V14.01,2013-09-19 17:55:00,
2013-09-19 14:00:00,96.3,59.8,29.76,NNW,338,2.9,2.9,30,0.00,,---,0.00,VWS V14.01,2013-09-19 18:00:00,
2013-09-19 14:05:00,95.5,58.2,29.76,NE,45,3.8,6.3,29,0.00,,---,0.00,VWS V14.01,2013-09-19 18:05:00,
2013-09-19 14:10:00,96.1,59.7,29.76,NE,45,6.3,6.3,30,0.00,,---,0.00,VWS V14.01,2013-09-19 18:10:00,
2013-09-19 14:15:00,93.9,56.9,29.76,East,90,2.0,3.6,29,0.00,,---,0.00,VWS V14.01,2013-09-19 18:15:00,
2013-09-19 14:20:00,94.8,59.5,29.76,NNE,22,2.7,4.0,31,0.00,,---,0.00,VWS V14.01,2013-09-19 18:20:00,
2013-09-19 14:25:00,95.2,58.9,29.76,SE,135,3.6,3.6,30,0.00,,---,0.00,VWS V14.01,2013-09-19 18:25:00,
2013-09-19 14:30:00,96.4,60.0,29.76,ENE,68,3.8,8.1,30,0.00,,---,0.00,VWS V14.01,2013-09-19 18:30:00,
2013-09-19 14:35:00,96.8,59.3,29.76,SE,135,1.3,1.3,29,0.00,,---,0.00,VWS V14.01,2013-09-19 18:35:00,
2013-09-19 14:40:00,95.5,58.2,29.76,ESE,112,2.5,5.8,29,0.00,,---,0.00,VWS V14.01,2013-09-19 18:40:00,
2013-09-19 14:45:00,95.5,58.2,29.76,NNE,22,6.0,6.9,29,0.00,,---,0.00,VWS V14.01,2013-09-19 18:45:00,
2013-09-19 14:50:00,95.9,59.5,29.76,North,0,3.8,5.6,30,0.00,,---,0.00,VWS V14.01,2013-09-19 18:50:00,
2013-09-19 14:55:00,95.9,59.5,29.76,East,90,6.5,6.5,30,0.00,,---,0.00,VWS V14.01,2013-09-19 18:55:00,
2013-09-19 15:00:00,96.1,58.7,29.76,NW,315,5.4,5.4,29,0.00,,---,0.00,VWS V14.01,2013-09-19 19:00:00,
2013-09-19 15:05:00,97.0,59.5,29.76,SE,135,3.4,7.8,29,0.00,,---,0.00,VWS V14.01,2013-09-19 19:05:00,
2013-09-19 15:10:00,98.2,60.6,29.74,NW,315,6.3,6.3,29,0.00,,---,0.00,VWS V14.01,2013-09-19 19:10:00,
2013-09-19 15:15:00,95.5,58.2,29.74,North,0,2.0,2.5,29,0.00,,---,0.00,VWS V14.01,2013-09-19 19:15:00,
2013-09-19 15:20:00,92.5,58.4,29.74,North,0,5.8,10.7,32,0.00,,---,0.00,VWS V14.01,2013-09-19 19:20:00,
2013-09-19 15:26:00,90.3,59.8,29.74,NE,45,4.0,4.3,36,0.00,,---,0.00,VWS V14.01,2013-09-19 19:26:00,
2013-09-19 15:31:00,88.7,60.6,29.74,NW,315,5.8,7.6,39,0.00,,---,0.00,VWS V14.01,2013-09-19 19:31:00,
2013-09-19 15:36:00,87.4,61.5,29.74,East,90,7.6,7.6,42,0.00,,---,0.00,VWS V14.01,2013-09-19 19:36:00,
2013-09-19 15:41:00,87.1,61.2,29.74,East,90,5.6,5.6,42,0.00,,---,0.00,VWS V14.01,2013-09-19 19:41:00,
2013-09-19 15:46:00,86.7,61.6,29.74,NE,45,1.3,4.0,43,0.00,,---,0.00,VWS V14.01,2013-09-19 19:46:00,
2013-09-19 15:51:00,86.7,64.1,29.74,NNE,22,6.3,6.3,47,0.00,,---,0.00,VWS V14.01,2013-09-19 19:51:00,
2013-09-19 15:56:00,87.6,64.3,29.74,North,0,3.4,3.6,46,0.00,,---,0.00,VWS V14.01,2013-09-19 19:56:00,
2013-09-19 16:01:00,90.1,66.6,29.74,NNE,22,6.0,6.9,46,0.00,,---,0.00,VWS V14.01,2013-09-19 20:01:00,
2013-09-19 16:06:00,90.5,66.3,29.74,North,0,8.5,8.5,45,0.00,,---,0.00,VWS V14.01,2013-09-19 20:06:00,
2013-09-19 16:11:00,90.7,65.1,29.74,NE,45,5.4,7.2,43,0.00,,---,0.00,VWS V14.01,2013-09-19 20:11:00,
2013-09-19 16:16:00,90.3,62.7,29.74,NNW,338,2.7,7.2,40,0.00,,---,0.00,VWS V14.01,2013-09-19 20:16:00,
2013-09-19 16:21:00,90.5,62.9,29.74,NNE,22,7.8,9.8,40,0.00,,---,0.00,VWS V14.01,2013-09-19 20:21:00,
2013-09-19 16:26:00,90.9,62.5,29.74,NE,45,7.6,8.5,39,0.00,,---,0.00,VWS V14.01,2013-09-19 20:26:00,
2013-09-19 16:31:00,90.3,61.3,29.74,NNE,22,4.3,5.4,38,0.00,,---,0.00,VWS V14.01,2013-09-19 20:31:00,
2013-09-19 16:36:00,90.0,61.0,29.74,NW,315,5.6,6.5,38,0.00,,---,0.00,VWS V14.01,2013-09-19 20:36:00,
2013-09-19 16:41:00,89.4,61.2,29.74,NW,315,7.2,7.2,39,0.00,,---,0.00,VWS V14.01,2013-09-19 20:41:00,
2013-09-19 16:46:00,88.9,60.8,29.74,NNW,338,2.9,2.9,39,0.00,,---,0.00,VWS V14.01,2013-09-19 20:46:00,
2013-09-19 16:51:00,89.2,61.8,29.74,NNE,22,6.5,6.5,40,0.00,,---,0.00,VWS V14.01,2013-09-19 20:51:00,
2013-09-19 16:56:00,89.4,61.9,29.74,NW,315,2.0,2.2,40,0.00,,---,0.00,VWS V14.01,2013-09-19 20:56:00,
2013-09-19 17:01:00,89.8,62.3,29.74,NE,45,4.9,6.0,40,0.00,,---,0.00,VWS V14.01,2013-09-19 21:01:00,
2013-09-19 17:06:00,90.3,62.0,29.74,NE,45,6.7,6.7,39,0.00,,---,0.00,VWS V14.01,2013-09-19 21:06:00,
2013-09-19 17:11:00,90.3,62.0,29.74,North,0,3.4,3.4,39,0.00,,---,0.00,VWS V14.01,2013-09-19 21:11:00,
2013-09-19 17:16:00,89.2,61.8,29.74,North,0,4.0,4.0,40,0.00,,---,0.00,VWS V14.01,2013-09-19 21:16:00,
2013-09-19 17:21:00,88.7,61.3,29.74,NNE,22,7.8,7.8,40,0.00,,---,0.00,VWS V14.01,2013-09-19 21:21:00,
2013-09-19 17:26:00,88.7,62.0,29.74,NE,45,5.8,7.4,41,0.00,,---,0.00,VWS V14.01,2013-09-19 21:26:00,
2013-09-19 17:31:00,88.2,61.5,29.74,NW,315,6.0,6.0,41,0.00,,---,0.00,VWS V14.01,2013-09-19 21:31:00,
2013-09-19 17:36:00,88.0,62.0,29.74,ENE,68,4.0,4.0,42,0.00,,---,0.00,VWS V14.01,2013-09-19 21:36:00,
2013-09-19 17:41:00,87.1,61.9,29.74,ENE,68,2.0,2.7,43,0.00,,---,0.00,VWS V14.01,2013-09-19 21:41:00,
2013-09-19 17:46:00,86.9,61.1,29.74,ENE,68,3.8,5.4,42,0.00,,---,0.00,VWS V14.01,2013-09-19 21:46:00,
2013-09-19 17:51:00,86.4,60.6,29.74,North,0,5.4,6.5,42,0.00,,---,0.00,VWS V14.01,2013-09-19 21:51:00,
2013-09-19 17:57:00,85.8,61.4,29.76,ENE,68,3.6,4.0,44,0.00,,---,0.00,VWS V14.01,2013-09-19 21:57:00,
2013-09-19 18:02:00,85.6,61.9,29.76,ENE,68,2.0,2.5,45,0.00,,---,0.00,VWS V14.01,2013-09-19 22:02:00,
2013-09-19 18:07:00,85.1,62.0,29.76,NNW,338,2.9,5.6,46,0.00,,---,0.00,VWS V14.01,2013-09-19 22:07:00,
2013-09-19 18:12:00,84.6,61.5,29.76,NNW,338,4.3,4.3,46,0.00,,---,0.00,VWS V14.01,2013-09-19 22:12:00,
2013-09-19 18:17:00,83.1,63.7,29.76,NE,45,2.7,8.7,52,0.00,,---,0.00,VWS V14.01,2013-09-19 22:17:00,
2013-09-19 18:22:00,82.0,64.3,29.76,WNW,292,5.6,7.8,55,0.00,,---,0.00,VWS V14.01,2013-09-19 22:22:00,
2013-09-19 18:27:00,81.9,64.1,29.76,NW,315,3.4,6.0,55,0.00,,---,0.00,VWS V14.01,2013-09-19 22:27:00,
2013-09-19 18:32:00,80.8,64.6,29.76,ESE,112,6.0,8.5,58,0.00,,---,0.00,VWS V14.01,2013-09-19 22:32:00,
2013-09-19 18:37:00,80.8,64.6,29.76,North,0,2.7,3.6,58,0.00,,---,0.00,VWS V14.01,2013-09-19 22:37:00,
2013-09-19 18:42:00,80.6,64.5,29.76,West,270,4.3,7.4,58,0.00,,---,0.00,VWS V14.01,2013-09-19 22:42:00,
2013-09-19 18:47:00,79.9,64.3,29.76,WSW,248,2.9,6.0,59,0.00,,---,0.00,VWS V14.01,2013-09-19 22:47:00,
2013-09-19 18:52:00,79.2,64.1,29.76,North,0,3.1,3.6,60,0.00,,---,0.00,VWS V14.01,2013-09-19 22:52:00,
2013-09-19 18:57:00,78.8,64.2,29.76,ENE,68,6.0,7.6,61,0.00,,---,0.00,VWS V14.01,2013-09-19 22:57:00,
2013-09-19 19:02:00,78.6,65.0,29.76,North,0,7.4,7.4,63,0.00,,---,0.00,VWS V14.01,2013-09-19 23:02:00,
2013-09-19 19:07:00,78.4,65.3,29.76,NW,315,1.6,4.3,64,0.00,,---,0.00,VWS V14.01,2013-09-19 23:07:00,
2013-09-19 19:12:00,78.1,64.9,29.76,East,90,2.5,3.6,64,0.00,,---,0.00,VWS V14.01,2013-09-19 23:12:00,
2013-09-19 19:17:00,77.9,65.2,29.76,West,270,1.3,5.8,65,0.00,,---,0.00,VWS V14.01,2013-09-19 23:17:00,
2013-09-19 19:22:00,77.7,65.0,29.76,ESE,112,1.3,4.0,65,0.00,,---,0.00,VWS V14.01,2013-09-19 23:22:00,
2013-09-19 19:27:00,77.7,65.0,29.76,ESE,112,2.2,5.8,65,0.00,,---,0.00,VWS V14.01,2013-09-19 23:27:00,
2013-09-19 19:32:00,77.5,64.0,29.76,WNW,292,2.5,4.7,63,0.00,,---,0.00,VWS V14.01,2013-09-19 23:32:00,
2013-09-19 19:37:00,77.4,63.8,29.76,NE,45,3.8,3.8,63,0.00,,---,0.00,VWS V14.01,2013-09-19 23:37:00,
2013-09-19 19:42:00,77.4,63.8,29.76,East,90,1.6,3.1,63,0.00,,---,0.00,VWS V14.01,2013-09-19 23:42:00,
2013-09-19 19:47:00,77.4,63.8,29.76,NE,45,2.9,4.9,63,0.00,,---,0.00,VWS V14.01,2013-09-19 23:47:00,
2013-09-19 19:52:00,77.0,63.5,29.76,NE,45,1.6,2.9,63,0.00,,---,0.00,VWS V14.01,2013-09-19 23:52:00,
2013-09-19 19:57:00,77.0,63.5,29.76,NE,45,1.6,2.7,63,0.00,,---,0.00,VWS V14.01,2013-09-19 23:57:00,
2013-09-19 20:02:00,76.6,63.6,29.76,East,90,0.9,2.0,64,0.00,,---,0.00,VWS V14.01,2013-09-20 00:02:00,
2013-09-19 20:07:00,76.6,64.0,29.76,ENE,68,2.7,2.7,65,0.00,,---,0.00,VWS V14.01,2013-09-20 00:07:00,
2013-09-19 20:12:00,76.6,64.4,29.76,East,90,2.5,2.5,66,0.00,,---,0.00,VWS V14.01,2013-09-20 00:12:00,
2013-09-19 20:17:00,76.6,64.4,29.76,East,90,2.9,2.9,66,0.00,,---,0.00,VWS V14.01,2013-09-20 00:17:00,
2013-09-19 20:22:00,76.6,64.9,29.76,East,90,1.3,1.3,67,0.00,,---,0.00,VWS V14.01,2013-09-20 00:22:00,
2013-09-19 20:27:00,76.6,64.9,29.76,ENE,68,2.9,3.6,67,0.00,,---,0.00,VWS V14.01,2013-09-20 00:27:00,
2013-09-19 20:32:00,76.6,64.9,29.76,ENE,68,1.1,1.3,67,0.00,,---,0.00,VWS V14.01,2013-09-20 00:32:00,
2013-09-19 20:37:00,76.6,64.9,29.76,East,90,2.7,2.7,67,0.00,,---,0.00,VWS V14.01,2013-09-20 00:37:00,
2013-09-19 20:42:00,76.3,63.7,29.76,ENE,68,2.5,4.0,65,0.00,,---,0.00,VWS V14.01,2013-09-20 00:42:00,
2013-09-19 20:47:00,75.9,63.8,29.76,NE,45,3.4,3.4,66,0.00,,---,0.00,VWS V14.01,2013-09-20 00:47:00,
2013-09-19 20:52:00,75.9,64.2,29.76,ENE,68,2.0,2.0,67,0.00,,---,0.00,VWS V14.01,2013-09-20 00:52:00,
2013-09-19 20:57:00,75.9,64.2,29.76,ESE,112,0.9,0.9,67,0.00,,---,0.00,VWS V14.01,2013-09-20 00:57:00,
2013-09-19 21:02:00,75.7,64.0,29.76,ENE,68,0.0,1.6,67,0.00,,---,0.00,VWS V14.01,2013-09-20 01:02:00,
2013-09-19 21:07:00,75.7,64.0,29.76,East,90,1.3,1.3,67,0.00,,---,0.00,VWS V14.01,2013-09-20 01:07:00,
2013-09-19 21:12:00,75.7,64.4,29.79,East,90,0.0,1.6,68,0.00,,---,0.00,VWS V14.01,2013-09-20 01:12:00,
2013-09-19 21:17:00,75.7,64.4,29.79,ENE,68,1.3,1.3,68,0.00,,---,0.00,VWS V14.01,2013-09-20 01:17:00,
2013-09-19 21:22:00,75.7,64.4,29.79,ENE,68,1.1,1.1,68,0.00,,---,0.00,VWS V14.01,2013-09-20 01:22:00,
2013-09-19 21:27:00,75.6,63.8,29.79,ENE,68,1.6,1.6,67,0.00,,---,0.00,VWS V14.01,2013-09-20 01:27:00,
2013-09-19 21:32:00,75.4,63.7,29.79,NE,45,1.6,1.6,67,0.00,,---,0.00,VWS V14.01,2013-09-20 01:32:00,
2013-09-19 21:37:00,75.2,63.5,29.79,ENE,68,1.6,2.0,67,0.00,,---,0.00,VWS V14.01,2013-09-20 01:37:00,
2013-09-19 21:42:00,75.2,63.5,29.79,East,90,3.4,3.6,67,0.00,,---,0.00,VWS V14.01,2013-09-20 01:42:00,
2013-09-19 21:47:00,75.2,63.5,29.79,NNE,22,2.0,2.5,67,0.00,,---,0.00,VWS V14.01,2013-09-20 01:47:00,
2013-09-19 21:52:00,75.2,63.5,29.79,ENE,68,1.3,1.3,67,0.00,,---,0.00,VWS V14.01,2013-09-20 01:52:00,
2013-09-19 21:57:00,75.0,63.8,29.79,East,90,0.9,0.9,68,0.00,,---,0.00,VWS V14.01,2013-09-20 01:57:00,
2013-09-19 22:02:00,75.0,63.8,29.79,East,90,1.3,1.3,68,0.00,,---,0.00,VWS V14.01,2013-09-20 02:02:00,
2013-09-19 22:07:00,75.0,63.8,29.79,East,90,2.2,2.2,68,0.00,,---,0.00,VWS V14.01,2013-09-20 02:07:00,
2013-09-19 22:12:00,75.0,63.8,29.79,ENE,68,1.3,1.3,68,0.00,,---,0.00,VWS V14.01,2013-09-20 02:12:00,
2013-09-19 22:17:00,74.8,63.6,29.79,NE,45,1.3,2.5,68,0.00,,---,0.00,VWS V14.01,2013-09-20 02:17:00,
2013-09-19 22:22:00,74.8,63.6,29.79,ENE,68,0.9,0.9,68,0.00,,---,0.00,VWS V14.01,2013-09-20 02:22:00,
2013-09-19 22:27:00,74.8,63.6,29.79,NE,45,0.0,1.3,68,0.00,,---,0.00,VWS V14.01,2013-09-20 02:27:00,
2013-09-19 22:32:00,74.5,63.2,29.79,NE,45,0.0,0.9,68,0.00,,---,0.00,VWS V14.01,2013-09-20 02:32:00,
2013-09-19 22:37:00,74.5,63.2,29.79,NE,45,1.6,2.2,68,0.00,,---,0.00,VWS V14.01,2013-09-20 02:37:00,
2013-09-19 22:42:00,74.5,63.2,29.79,ENE,68,0.0,0.0,68,0.00,,---,0.00,VWS V14.01,2013-09-20 02:42:00,
2013-09-19 22:47:00,74.3,63.1,29.79,ENE,68,1.1,1.1,68,0.00,,---,0.00,VWS V14.01,2013-09-20 02:47:00,
2013-09-19 22:52:00,73.9,62.7,29.79,ENE,68,0.0,0.0,68,0.00,,---,0.00,VWS V14.01,2013-09-20 02:52:00,
2013-09-19 22:57:00,73.8,63.0,29.79,ENE,68,0.0,0.0,69,0.00,,---,0.00,VWS V14.01,2013-09-20 02:57:00,
2013-09-19 23:02:00,73.8,63.0,29.79,ENE,68,0.9,0.9,69,0.00,,---,0.00,VWS V14.01,2013-09-20 03:02:00,
2013-09-19 23:07:00,73.4,62.6,29.79,ENE,68,0.0,0.0,69,0.00,,---,0.00,VWS V14.01,2013-09-20 03:07:00,
2013-09-19 23:12:00,73.4,62.6,29.79,East,90,0.9,1.6,69,0.00,,---,0.00,VWS V14.01,2013-09-20 03:12:00,
2013-09-19 23:17:00,73.2,62.9,29.79,NNE,22,1.6,2.5,70,0.00,,---,0.00,VWS V14.01,2013-09-20 03:17:00,
2013-09-19 23:22:00,73.0,62.7,29.79,NE,45,0.9,0.9,70,0.00,,---,0.00,VWS V14.01,2013-09-20 03:22:00,
2013-09-19 23:27:00,73.2,62.9,29.79,East,90,1.3,1.3,70,0.00,,---,0.00,VWS V14.01,2013-09-20 03:27:00,
2013-09-19 23:32:00,73.0,62.7,29.79,ENE,68,0.9,1.6,70,0.00,,---,0.00,VWS V14.01,2013-09-20 03:32:00,
2013-09-19 23:37:00,73.0,62.7,29.79,ENE,68,1.1,1.1,70,0.00,,---,0.00,VWS V14.01,2013-09-20 03:37:00,
2013-09-19 23:42:00,72.9,62.9,29.76,ENE,68,0.0,0.0,71,0.00,,---,0.00,VWS V14.01,2013-09-20 03:42:00,
2013-09-19 23:47:00,72.7,62.7,29.76,East,90,0.9,1.1,71,0.00,,---,0.00,VWS V14.01,2013-09-20 03:47:00,
2013-09-19 23:53:00,72.9,62.9,29.76,East,90,0.9,2.5,71,0.00,,---,0.00,VWS V14.01,2013-09-20 03:53:00,
2013-09-19 23:58:00,72.9,62.9,29.79,NE,45,0.0,0.0,71,0.00,,---,0.00,VWS V14.01,2013-09-20 03:58:00,